sensor_id;sensor_type;location;lat;lon;timestamp;P1;durP1;ratioP1;P2;durP2;ratioP2
4373;SDS011;2201;51.100;6.814;2023-04-26T00:00:13;1.53;;;1.37;;
4373;SDS011;2201;51.100;6.814;2023-04-26T00:02:42;1.60;;;1.50;;
4373;SDS011;2201;51.100;6.814;2023-04-26T00:05:09;1.50;;;1.30;;
4373;SDS011;2201;51.100;6.814;2023-04-26T00:07:36;1.53;;;1.30;;
4373;SDS011;2201;51.100;6.814;2023-04-26T00:10:03;1.53;;;1.30;;
4373;SDS011;2201;51.100;6.814;2023-04-26T00:12:30;1.50;;;1.30;;
4373;SDS011;2201;51.100;6.814;2023-04-26T00:14:57;1.60;;;1.50;;
4373;SDS011;2201;51.100;6.814;2023-04-26T00:17:23;1.50;;;1.40;;
4373;SDS011;2201;51.100;6.814;2023-04-26T00:19:51;1.60;;;1.40;;
4373;SDS011;2201;51.100;6.814;2023-04-26T00:22:18;1.57;;;1.40;;
4373;SDS011;2201;51.100;6.814;2023-04-26T00:24:45;1.57;;;1.40;;
4373;SDS011;2201;51.100;6.814;2023-04-26T00:27:12;1.60;;;1.50;;
4373;SDS011;2201;51.100;6.814;2023-04-26T00:29:39;1.57;;;1.30;;
4373;SDS011;2201;51.100;6.814;2023-04-26T00:32:06;1.57;;;1.40;;
4373;SDS011;2201;51.100;6.814;2023-04-26T00:34:33;1.60;;;1.30;;
4373;SDS011;2201;51.100;6.814;2023-04-26T00:37:02;1.53;;;1.40;;
4373;SDS011;2201;51.100;6.814;2023-04-26T00:39:29;1.57;;;1.37;;
4373;SDS011;2201;51.100;6.814;2023-04-26T00:41:56;1.60;;;1.40;;
4373;SDS011;2201;51.100;6.814;2023-04-26T00:44:23;1.53;;;1.37;;
4373;SDS011;2201;51.100;6.814;2023-04-26T00:46:51;1.57;;;1.40;;
4373;SDS011;2201;51.100;6.814;2023-04-26T00:49:20;1.60;;;1.47;;
4373;SDS011;2201;51.100;6.814;2023-04-26T00:51:49;1.57;;;1.40;;
4373;SDS011;2201;51.100;6.814;2023-04-26T00:54:18;1.60;;;1.40;;
4373;SDS011;2201;51.100;6.814;2023-04-26T00:56:46;1.50;;;1.40;;
4373;SDS011;2201;51.100;6.814;2023-04-26T00:59:16;1.60;;;1.30;;
4373;SDS011;2201;51.100;6.814;2023-04-26T01:01:43;1.60;;;1.40;;
4373;SDS011;2201;51.100;6.814;2023-04-26T01:04:10;1.60;;;1.40;;
4373;SDS011;2201;51.100;6.814;2023-04-26T01:06:38;1.60;;;1.50;;
4373;SDS011;2201;51.100;6.814;2023-04-26T01:09:06;1.60;;;1.40;;
4373;SDS011;2201;51.100;6.814;2023-04-26T01:11:37;1.60;;;1.40;;
4373;SDS011;2201;51.100;6.814;2023-04-26T01:14:04;1.50;;;1.30;;
4373;SDS011;2201;51.100;6.814;2023-04-26T01:16:32;1.50;;;1.30;;
4373;SDS011;2201;51.100;6.814;2023-04-26T01:19:05;1.60;;;1.43;;
4373;SDS011;2201;51.100;6.814;2023-04-26T01:21:33;1.57;;;1.40;;
4373;SDS011;2201;51.100;6.814;2023-04-26T01:24:01;1.53;;;1.30;;
4373;SDS011;2201;51.100;6.814;2023-04-26T01:26:28;1.60;;;1.40;;
4373;SDS011;2201;51.100;6.814;2023-04-26T01:28:56;1.53;;;1.40;;
4373;SDS011;2201;51.100;6.814;2023-04-26T01:31:23;1.60;;;1.50;;
4373;SDS011;2201;51.100;6.814;2023-04-26T01:33:50;1.57;;;1.30;;
4373;SDS011;2201;51.100;6.814;2023-04-26T01:36:16;1.60;;;1.50;;
4373;SDS011;2201;51.100;6.814;2023-04-26T01:38:43;1.60;;;1.50;;
4373;SDS011;2201;51.100;6.814;2023-04-26T01:41:11;1.60;;;1.40;;
4373;SDS011;2201;51.100;6.814;2023-04-26T01:43:38;1.60;;;1.40;;
4373;SDS011;2201;51.100;6.814;2023-04-26T01:46:05;1.67;;;1.57;;
4373;SDS011;2201;51.100;6.814;2023-04-26T01:48:31;1.50;;;1.30;;
4373;SDS011;2201;51.100;6.814;2023-04-26T01:51:04;1.60;;;1.40;;
4373;SDS011;2201;51.100;6.814;2023-04-26T01:53:31;1.50;;;1.30;;
4373;SDS011;2201;51.100;6.814;2023-04-26T01:55:59;1.60;;;1.40;;
4373;SDS011;2201;51.100;6.814;2023-04-26T01:58:27;1.53;;;1.40;;
4373;SDS011;2201;51.100;6.814;2023-04-26T02:00:55;1.60;;;1.40;;
4373;SDS011;2201;51.100;6.814;2023-04-26T02:03:21;1.50;;;1.30;;
4373;SDS011;2201;51.100;6.814;2023-04-26T02:05:48;1.53;;;1.40;;
4373;SDS011;2201;51.100;6.814;2023-04-26T02:08:15;1.57;;;1.40;;
4373;SDS011;2201;51.100;6.814;2023-04-26T02:10:41;1.60;;;1.50;;
4373;SDS011;2201;51.100;6.814;2023-04-26T02:13:08;1.57;;;1.43;;
4373;SDS011;2201;51.100;6.814;2023-04-26T02:15:37;1.60;;;1.50;;
4373;SDS011;2201;51.100;6.814;2023-04-26T02:18:03;1.60;;;1.40;;
4373;SDS011;2201;51.100;6.814;2023-04-26T02:20:30;1.60;;;1.43;;
4373;SDS011;2201;51.100;6.814;2023-04-26T02:22:57;1.53;;;1.37;;
4373;SDS011;2201;51.100;6.814;2023-04-26T02:25:24;2.63;;;2.43;;
4373;SDS011;2201;51.100;6.814;2023-04-26T02:27:51;1.50;;;1.40;;
4373;SDS011;2201;51.100;6.814;2023-04-26T02:30:18;1.63;;;1.53;;
4373;SDS011;2201;51.100;6.814;2023-04-26T02:32:46;1.60;;;1.50;;
4373;SDS011;2201;51.100;6.814;2023-04-26T02:35:13;1.53;;;1.40;;
4373;SDS011;2201;51.100;6.814;2023-04-26T02:37:40;1.60;;;1.43;;
4373;SDS011;2201;51.100;6.814;2023-04-26T02:40:07;1.57;;;1.40;;
4373;SDS011;2201;51.100;6.814;2023-04-26T02:42:35;1.53;;;1.40;;
4373;SDS011;2201;51.100;6.814;2023-04-26T02:45:02;1.50;;;1.40;;
4373;SDS011;2201;51.100;6.814;2023-04-26T02:47:31;1.57;;;1.40;;
4373;SDS011;2201;51.100;6.814;2023-04-26T02:49:59;1.60;;;1.40;;
4373;SDS011;2201;51.100;6.814;2023-04-26T02:52:26;1.60;;;1.50;;
4373;SDS011;2201;51.100;6.814;2023-04-26T02:54:53;1.60;;;1.50;;
4373;SDS011;2201;51.100;6.814;2023-04-26T02:57:19;1.80;;;1.70;;
4373;SDS011;2201;51.100;6.814;2023-04-26T02:59:46;1.50;;;1.40;;
4373;SDS011;2201;51.100;6.814;2023-04-26T03:02:13;1.53;;;1.40;;
4373;SDS011;2201;51.100;6.814;2023-04-26T03:04:39;1.57;;;1.40;;
4373;SDS011;2201;51.100;6.814;2023-04-26T03:07:07;1.57;;;1.40;;
4373;SDS011;2201;51.100;6.814;2023-04-26T03:09:34;2.90;;;2.70;;
4373;SDS011;2201;51.100;6.814;2023-04-26T03:12:03;1.60;;;1.40;;
4373;SDS011;2201;51.100;6.814;2023-04-26T03:14:31;1.60;;;1.40;;
4373;SDS011;2201;51.100;6.814;2023-04-26T03:16:58;1.50;;;1.30;;
4373;SDS011;2201;51.100;6.814;2023-04-26T03:19:25;1.67;;;1.57;;
4373;SDS011;2201;51.100;6.814;2023-04-26T03:21:52;1.60;;;1.50;;
4373;SDS011;2201;51.100;6.814;2023-04-26T03:24:21;1.60;;;1.43;;
4373;SDS011;2201;51.100;6.814;2023-04-26T03:26:47;1.53;;;1.30;;
4373;SDS011;2201;51.100;6.814;2023-04-26T03:29:14;1.53;;;1.40;;
4373;SDS011;2201;51.100;6.814;2023-04-26T03:31:41;1.60;;;1.50;;
4373;SDS011;2201;51.100;6.814;2023-04-26T03:34:08;1.57;;;1.40;;
4373;SDS011;2201;51.100;6.814;2023-04-26T03:36:35;1.57;;;1.40;;
4373;SDS011;2201;51.100;6.814;2023-04-26T03:39:02;1.60;;;1.50;;
4373;SDS011;2201;51.100;6.814;2023-04-26T03:41:31;1.53;;;1.40;;
4373;SDS011;2201;51.100;6.814;2023-04-26T03:43:59;1.60;;;1.40;;
4373;SDS011;2201;51.100;6.814;2023-04-26T03:46:26;1.60;;;1.50;;
4373;SDS011;2201;51.100;6.814;2023-04-26T03:48:53;1.60;;;1.40;;
4373;SDS011;2201;51.100;6.814;2023-04-26T03:51:20;1.57;;;1.40;;
4373;SDS011;2201;51.100;6.814;2023-04-26T03:53:46;1.60;;;1.43;;
4373;SDS011;2201;51.100;6.814;2023-04-26T03:56:13;1.57;;;1.40;;
4373;SDS011;2201;51.100;6.814;2023-04-26T03:58:42;1.60;;;1.40;;
4373;SDS011;2201;51.100;6.814;2023-04-26T04:01:09;1.57;;;1.40;;
4373;SDS011;2201;51.100;6.814;2023-04-26T04:03:35;1.57;;;1.40;;
4373;SDS011;2201;51.100;6.814;2023-04-26T04:06:02;1.60;;;1.50;;
4373;SDS011;2201;51.100;6.814;2023-04-26T04:08:29;1.60;;;1.50;;
4373;SDS011;2201;51.100;6.814;2023-04-26T04:10:57;1.60;;;1.43;;
4373;SDS011;2201;51.100;6.814;2023-04-26T04:13:23;1.53;;;1.40;;
4373;SDS011;2201;51.100;6.814;2023-04-26T04:15:51;1.60;;;1.50;;
4373;SDS011;2201;51.100;6.814;2023-04-26T04:18:18;1.60;;;1.50;;
4373;SDS011;2201;51.100;6.814;2023-04-26T04:20:45;1.70;;;1.60;;
4373;SDS011;2201;51.100;6.814;2023-04-26T04:23:12;1.60;;;1.43;;
4373;SDS011;2201;51.100;6.814;2023-04-26T04:25:40;1.57;;;1.40;;
4373;SDS011;2201;51.100;6.814;2023-04-26T04:28:08;1.60;;;1.50;;
4373;SDS011;2201;51.100;6.814;2023-04-26T04:30:35;1.60;;;1.50;;
4373;SDS011;2201;51.100;6.814;2023-04-26T04:33:03;1.70;;;1.60;;
4373;SDS011;2201;51.100;6.814;2023-04-26T04:35:30;1.50;;;1.40;;
4373;SDS011;2201;51.100;6.814;2023-04-26T04:37:57;1.60;;;1.40;;
4373;SDS011;2201;51.100;6.814;2023-04-26T04:40:24;1.57;;;1.40;;
4373;SDS011;2201;51.100;6.814;2023-04-26T04:42:52;1.60;;;1.40;;
4373;SDS011;2201;51.100;6.814;2023-04-26T04:45:19;2.67;;;2.47;;
4373;SDS011;2201;51.100;6.814;2023-04-26T04:47:46;1.60;;;1.50;;
4373;SDS011;2201;51.100;6.814;2023-04-26T04:50:14;1.50;;;1.40;;
4373;SDS011;2201;51.100;6.814;2023-04-26T04:52:41;1.57;;;1.40;;
4373;SDS011;2201;51.100;6.814;2023-04-26T04:55:08;1.60;;;1.50;;
4373;SDS011;2201;51.100;6.814;2023-04-26T04:57:35;1.57;;;1.40;;
4373;SDS011;2201;51.100;6.814;2023-04-26T05:00:03;1.60;;;1.40;;
4373;SDS011;2201;51.100;6.814;2023-04-26T05:02:34;1.53;;;1.40;;
4373;SDS011;2201;51.100;6.814;2023-04-26T05:05:01;1.60;;;1.40;;
4373;SDS011;2201;51.100;6.814;2023-04-26T05:07:30;1.70;;;1.60;;
4373;SDS011;2201;51.100;6.814;2023-04-26T05:09:56;1.60;;;1.50;;
4373;SDS011;2201;51.100;6.814;2023-04-26T05:12:23;1.57;;;1.40;;
4373;SDS011;2201;51.100;6.814;2023-04-26T05:14:50;1.60;;;1.40;;
4373;SDS011;2201;51.100;6.814;2023-04-26T05:17:17;1.60;;;1.40;;
4373;SDS011;2201;51.100;6.814;2023-04-26T05:19:44;1.60;;;1.40;;
4373;SDS011;2201;51.100;6.814;2023-04-26T05:22:11;1.60;;;1.40;;
4373;SDS011;2201;51.100;6.814;2023-04-26T05:24:43;1.60;;;1.40;;
4373;SDS011;2201;51.100;6.814;2023-04-26T05:27:10;1.70;;;1.60;;
4373;SDS011;2201;51.100;6.814;2023-04-26T05:29:37;1.53;;;1.37;;
4373;SDS011;2201;51.100;6.814;2023-04-26T05:32:04;1.57;;;1.40;;
4373;SDS011;2201;51.100;6.814;2023-04-26T05:34:31;1.57;;;1.40;;
4373;SDS011;2201;51.100;6.814;2023-04-26T05:36:58;1.63;;;1.53;;
4373;SDS011;2201;51.100;6.814;2023-04-26T05:39:25;1.57;;;1.30;;
4373;SDS011;2201;51.100;6.814;2023-04-26T05:41:53;1.57;;;1.30;;
4373;SDS011;2201;51.100;6.814;2023-04-26T05:44:20;1.50;;;1.30;;
4373;SDS011;2201;51.100;6.814;2023-04-26T05:46:47;1.50;;;1.30;;
4373;SDS011;2201;51.100;6.814;2023-04-26T05:49:13;1.57;;;1.30;;
4373;SDS011;2201;51.100;6.814;2023-04-26T05:51:40;1.50;;;1.30;;
4373;SDS011;2201;51.100;6.814;2023-04-26T05:54:07;1.60;;;1.40;;
4373;SDS011;2201;51.100;6.814;2023-04-26T05:56:34;1.57;;;1.30;;
4373;SDS011;2201;51.100;6.814;2023-04-26T05:59:02;1.50;;;1.30;;
4373;SDS011;2201;51.100;6.814;2023-04-26T06:01:28;1.50;;;1.30;;
4373;SDS011;2201;51.100;6.814;2023-04-26T06:03:55;1.53;;;1.30;;
4373;SDS011;2201;51.100;6.814;2023-04-26T06:06:22;1.57;;;1.30;;
4373;SDS011;2201;51.100;6.814;2023-04-26T06:08:49;1.60;;;1.43;;
4373;SDS011;2201;51.100;6.814;2023-04-26T06:11:15;1.53;;;1.30;;
4373;SDS011;2201;51.100;6.814;2023-04-26T06:13:42;1.50;;;1.20;;
4373;SDS011;2201;51.100;6.814;2023-04-26T06:16:10;1.60;;;1.40;;
4373;SDS011;2201;51.100;6.814;2023-04-26T06:18:37;1.50;;;1.30;;
4373;SDS011;2201;51.100;6.814;2023-04-26T06:21:04;1.50;;;1.20;;
4373;SDS011;2201;51.100;6.814;2023-04-26T06:23:31;1.50;;;1.20;;
4373;SDS011;2201;51.100;6.814;2023-04-26T06:25:58;1.50;;;1.20;;
4373;SDS011;2201;51.100;6.814;2023-04-26T06:28:25;1.50;;;1.10;;
4373;SDS011;2201;51.100;6.814;2023-04-26T06:30:52;1.50;;;1.20;;
4373;SDS011;2201;51.100;6.814;2023-04-26T06:33:20;1.50;;;1.10;;
4373;SDS011;2201;51.100;6.814;2023-04-26T06:35:47;1.50;;;1.17;;
4373;SDS011;2201;51.100;6.814;2023-04-26T06:38:13;1.50;;;1.10;;
4373;SDS011;2201;51.100;6.814;2023-04-26T06:40:40;1.50;;;1.20;;
4373;SDS011;2201;51.100;6.814;2023-04-26T06:43:07;1.50;;;1.10;;
4373;SDS011;2201;51.100;6.814;2023-04-26T06:45:34;1.50;;;1.20;;
4373;SDS011;2201;51.100;6.814;2023-04-26T06:48:01;1.50;;;1.20;;
4373;SDS011;2201;51.100;6.814;2023-04-26T06:50:30;1.50;;;1.30;;
4373;SDS011;2201;51.100;6.814;2023-04-26T06:52:57;1.60;;;1.30;;
4373;SDS011;2201;51.100;6.814;2023-04-26T06:55:24;1.50;;;1.10;;
4373;SDS011;2201;51.100;6.814;2023-04-26T06:57:50;1.50;;;1.10;;
4373;SDS011;2201;51.100;6.814;2023-04-26T07:00:17;1.50;;;1.10;;
4373;SDS011;2201;51.100;6.814;2023-04-26T07:02:45;1.50;;;1.10;;
4373;SDS011;2201;51.100;6.814;2023-04-26T07:05:12;1.50;;;1.13;;
4373;SDS011;2201;51.100;6.814;2023-04-26T07:07:40;1.50;;;1.00;;
4373;SDS011;2201;51.100;6.814;2023-04-26T07:10:07;1.50;;;1.00;;
4373;SDS011;2201;51.100;6.814;2023-04-26T07:12:35;3.23;;;3.03;;
4373;SDS011;2201;51.100;6.814;2023-04-26T07:15:02;1.50;;;1.00;;
4373;SDS011;2201;51.100;6.814;2023-04-26T07:17:30;1.50;;;1.10;;
4373;SDS011;2201;51.100;6.814;2023-04-26T07:19:57;1.50;;;1.00;;
4373;SDS011;2201;51.100;6.814;2023-04-26T07:22:24;1.50;;;0.97;;
4373;SDS011;2201;51.100;6.814;2023-04-26T07:24:52;1.50;;;1.20;;
4373;SDS011;2201;51.100;6.814;2023-04-26T07:27:18;1.50;;;1.00;;
4373;SDS011;2201;51.100;6.814;2023-04-26T07:29:45;1.50;;;1.10;;
4373;SDS011;2201;51.100;6.814;2023-04-26T07:32:12;1.40;;;1.00;;
4373;SDS011;2201;51.100;6.814;2023-04-26T07:34:39;1.47;;;1.00;;
4373;SDS011;2201;51.100;6.814;2023-04-26T07:37:06;1.47;;;1.00;;
4373;SDS011;2201;51.100;6.814;2023-04-26T07:39:33;1.50;;;1.00;;
4373;SDS011;2201;51.100;6.814;2023-04-26T07:42:01;1.47;;;1.00;;
4373;SDS011;2201;51.100;6.814;2023-04-26T07:44:28;1.50;;;1.00;;
4373;SDS011;2201;51.100;6.814;2023-04-26T07:46:55;1.50;;;1.00;;
4373;SDS011;2201;51.100;6.814;2023-04-26T07:49:21;1.40;;;1.00;;
4373;SDS011;2201;51.100;6.814;2023-04-26T07:51:48;1.50;;;1.10;;
4373;SDS011;2201;51.100;6.814;2023-04-26T07:54:16;1.50;;;1.00;;
4373;SDS011;2201;51.100;6.814;2023-04-26T07:56:43;1.50;;;1.10;;
4373;SDS011;2201;51.100;6.814;2023-04-26T07:59:11;1.50;;;1.10;;
4373;SDS011;2201;51.100;6.814;2023-04-26T08:01:38;1.50;;;1.00;;
4373;SDS011;2201;51.100;6.814;2023-04-26T08:04:04;1.50;;;1.10;;
4373;SDS011;2201;51.100;6.814;2023-04-26T08:06:31;1.50;;;1.00;;
4373;SDS011;2201;51.100;6.814;2023-04-26T08:08:58;1.50;;;1.10;;
4373;SDS011;2201;51.100;6.814;2023-04-26T08:11:24;1.50;;;1.00;;
4373;SDS011;2201;51.100;6.814;2023-04-26T08:13:51;1.50;;;1.07;;
4373;SDS011;2201;51.100;6.814;2023-04-26T08:16:19;1.47;;;1.00;;
4373;SDS011;2201;51.100;6.814;2023-04-26T08:18:46;1.47;;;1.00;;
4373;SDS011;2201;51.100;6.814;2023-04-26T08:21:13;1.50;;;1.00;;
4373;SDS011;2201;51.100;6.814;2023-04-26T08:23:40;1.50;;;1.00;;
4373;SDS011;2201;51.100;6.814;2023-04-26T08:26:06;1.50;;;1.00;;
4373;SDS011;2201;51.100;6.814;2023-04-26T08:28:33;1.50;;;1.00;;
4373;SDS011;2201;51.100;6.814;2023-04-26T08:31:00;1.50;;;1.00;;
4373;SDS011;2201;51.100;6.814;2023-04-26T08:33:28;1.43;;;0.90;;
4373;SDS011;2201;51.100;6.814;2023-04-26T08:35:57;1.47;;;1.00;;
4373;SDS011;2201;51.100;6.814;2023-04-26T08:38:25;1.50;;;1.00;;
4373;SDS011;2201;51.100;6.814;2023-04-26T08:40:51;1.50;;;0.90;;
4373;SDS011;2201;51.100;6.814;2023-04-26T08:43:21;1.50;;;1.00;;
4373;SDS011;2201;51.100;6.814;2023-04-26T08:45:48;1.50;;;1.00;;
4373;SDS011;2201;51.100;6.814;2023-04-26T08:48:15;1.50;;;0.90;;
4373;SDS011;2201;51.100;6.814;2023-04-26T08:50:44;1.50;;;1.00;;
4373;SDS011;2201;51.100;6.814;2023-04-26T08:53:13;1.43;;;0.90;;
4373;SDS011;2201;51.100;6.814;2023-04-26T08:55:41;1.50;;;1.00;;
4373;SDS011;2201;51.100;6.814;2023-04-26T08:58:13;1.40;;;0.90;;
4373;SDS011;2201;51.100;6.814;2023-04-26T09:00:41;1.43;;;1.00;;
4373;SDS011;2201;51.100;6.814;2023-04-26T09:03:09;1.50;;;1.00;;
4373;SDS011;2201;51.100;6.814;2023-04-26T09:05:37;1.43;;;0.90;;
4373;SDS011;2201;51.100;6.814;2023-04-26T09:08:09;1.50;;;1.03;;
4373;SDS011;2201;51.100;6.814;2023-04-26T09:10:40;1.50;;;1.00;;
4373;SDS011;2201;51.100;6.814;2023-04-26T09:13:07;1.50;;;1.00;;
4373;SDS011;2201;51.100;6.814;2023-04-26T09:15:35;1.50;;;0.97;;
4373;SDS011;2201;51.100;6.814;2023-04-26T09:18:14;1.50;;;1.23;;
4373;SDS011;2201;51.100;6.814;2023-04-26T09:20:42;1.50;;;0.97;;
4373;SDS011;2201;51.100;6.814;2023-04-26T09:23:11;1.50;;;1.00;;
4373;SDS011;2201;51.100;6.814;2023-04-26T09:25:41;1.50;;;1.00;;
4373;SDS011;2201;51.100;6.814;2023-04-26T09:28:17;1.40;;;0.90;;
4373;SDS011;2201;51.100;6.814;2023-04-26T09:30:45;1.47;;;0.90;;
4373;SDS011;2201;51.100;6.814;2023-04-26T09:33:12;1.50;;;1.00;;
4373;SDS011;2201;51.100;6.814;2023-04-26T09:35:39;1.50;;;1.00;;
4373;SDS011;2201;51.100;6.814;2023-04-26T09:38:08;1.43;;;1.00;;
4373;SDS011;2201;51.100;6.814;2023-04-26T09:40:39;1.40;;;0.90;;
4373;SDS011;2201;51.100;6.814;2023-04-26T09:43:07;1.50;;;1.00;;
4373;SDS011;2201;51.100;6.814;2023-04-26T09:45:42;1.40;;;0.90;;
4373;SDS011;2201;51.100;6.814;2023-04-26T09:48:14;1.47;;;0.90;;
4373;SDS011;2201;51.100;6.814;2023-04-26T09:50:46;1.47;;;0.90;;
4373;SDS011;2201;51.100;6.814;2023-04-26T09:53:24;1.43;;;0.90;;
4373;SDS011;2201;51.100;6.814;2023-04-26T09:55:53;1.50;;;1.00;;
4373;SDS011;2201;51.100;6.814;2023-04-26T09:58:21;1.43;;;0.90;;
4373;SDS011;2201;51.100;6.814;2023-04-26T10:00:49;1.50;;;1.10;;
4373;SDS011;2201;51.100;6.814;2023-04-26T10:03:17;1.50;;;1.00;;
4373;SDS011;2201;51.100;6.814;2023-04-26T10:05:44;1.50;;;0.90;;
4373;SDS011;2201;51.100;6.814;2023-04-26T10:08:11;1.50;;;0.90;;
4373;SDS011;2201;51.100;6.814;2023-04-26T10:10:38;1.43;;;0.90;;
4373;SDS011;2201;51.100;6.814;2023-04-26T10:13:07;1.43;;;0.90;;
4373;SDS011;2201;51.100;6.814;2023-04-26T10:15:34;1.50;;;1.00;;
4373;SDS011;2201;51.100;6.814;2023-04-26T10:18:01;1.50;;;1.00;;
4373;SDS011;2201;51.100;6.814;2023-04-26T10:20:28;1.50;;;0.90;;
4373;SDS011;2201;51.100;6.814;2023-04-26T10:22:56;1.43;;;0.90;;
4373;SDS011;2201;51.100;6.814;2023-04-26T10:25:33;1.43;;;0.90;;
4373;SDS011;2201;51.100;6.814;2023-04-26T10:28:01;1.50;;;0.90;;
4373;SDS011;2201;51.100;6.814;2023-04-26T10:30:30;1.43;;;0.90;;
4373;SDS011;2201;51.100;6.814;2023-04-26T10:35:58;1.50;;;1.00;;
4373;SDS011;2201;51.100;6.814;2023-04-26T10:38:33;1.43;;;0.90;;
4373;SDS011;2201;51.100;6.814;2023-04-26T10:41:26;1.47;;;0.90;;
4373;SDS011;2201;51.100;6.814;2023-04-26T10:43:57;1.47;;;0.90;;
4373;SDS011;2201;51.100;6.814;2023-04-26T10:46:34;1.43;;;0.90;;
4373;SDS011;2201;51.100;6.814;2023-04-26T10:49:15;1.50;;;1.00;;
4373;SDS011;2201;51.100;6.814;2023-04-26T10:54:43;1.50;;;0.90;;
4373;SDS011;2201;51.100;6.814;2023-04-26T10:57:20;1.50;;;0.90;;
4373;SDS011;2201;51.100;6.814;2023-04-26T11:03:01;1.43;;;0.90;;
4373;SDS011;2201;51.100;6.814;2023-04-26T11:05:33;1.50;;;0.90;;
4373;SDS011;2201;51.100;6.814;2023-04-26T11:08:06;1.50;;;0.90;;
4373;SDS011;2201;51.100;6.814;2023-04-26T11:10:35;1.47;;;0.90;;
4373;SDS011;2201;51.100;6.814;2023-04-26T11:13:03;1.50;;;0.90;;
4373;SDS011;2201;51.100;6.814;2023-04-26T11:15:30;1.47;;;0.90;;
4373;SDS011;2201;51.100;6.814;2023-04-26T11:17:57;1.50;;;0.90;;
4373;SDS011;2201;51.100;6.814;2023-04-26T11:20:27;1.50;;;0.90;;
4373;SDS011;2201;51.100;6.814;2023-04-26T11:22:55;1.50;;;0.90;;
4373;SDS011;2201;51.100;6.814;2023-04-26T11:25:23;1.47;;;0.90;;
4373;SDS011;2201;51.100;6.814;2023-04-26T11:27:55;1.80;;;1.50;;
4373;SDS011;2201;51.100;6.814;2023-04-26T11:30:22;1.40;;;0.90;;
4373;SDS011;2201;51.100;6.814;2023-04-26T11:32:49;1.47;;;0.90;;
4373;SDS011;2201;51.100;6.814;2023-04-26T11:35:18;1.50;;;0.90;;
4373;SDS011;2201;51.100;6.814;2023-04-26T11:37:47;1.47;;;0.90;;
4373;SDS011;2201;51.100;6.814;2023-04-26T11:40:15;1.47;;;0.93;;
4373;SDS011;2201;51.100;6.814;2023-04-26T11:42:43;1.43;;;0.90;;
4373;SDS011;2201;51.100;6.814;2023-04-26T11:45:10;1.50;;;1.00;;
4373;SDS011;2201;51.100;6.814;2023-04-26T11:47:37;1.50;;;0.90;;
4373;SDS011;2201;51.100;6.814;2023-04-26T11:50:05;1.50;;;1.00;;
4373;SDS011;2201;51.100;6.814;2023-04-26T11:52:35;1.43;;;0.90;;
4373;SDS011;2201;51.100;6.814;2023-04-26T11:55:03;1.47;;;0.90;;
4373;SDS011;2201;51.100;6.814;2023-04-26T11:57:31;1.43;;;0.90;;
4373;SDS011;2201;51.100;6.814;2023-04-26T12:00:08;1.50;;;0.90;;
4373;SDS011;2201;51.100;6.814;2023-04-26T12:02:38;1.50;;;0.90;;
4373;SDS011;2201;51.100;6.814;2023-04-26T12:05:06;1.43;;;0.90;;
4373;SDS011;2201;51.100;6.814;2023-04-26T12:07:36;1.50;;;0.90;;
4373;SDS011;2201;51.100;6.814;2023-04-26T12:10:12;1.43;;;0.90;;
4373;SDS011;2201;51.100;6.814;2023-04-26T12:12:42;1.47;;;0.90;;
4373;SDS011;2201;51.100;6.814;2023-04-26T12:15:10;1.40;;;0.90;;
4373;SDS011;2201;51.100;6.814;2023-04-26T12:17:38;1.43;;;0.90;;
4373;SDS011;2201;51.100;6.814;2023-04-26T12:20:08;1.47;;;1.00;;
4373;SDS011;2201;51.100;6.814;2023-04-26T12:22:37;1.43;;;0.90;;
4373;SDS011;2201;51.100;6.814;2023-04-26T12:25:04;1.50;;;1.00;;
4373;SDS011;2201;51.100;6.814;2023-04-26T12:27:32;1.47;;;0.90;;
4373;SDS011;2201;51.100;6.814;2023-04-26T12:29:58;1.50;;;1.00;;
4373;SDS011;2201;51.100;6.814;2023-04-26T12:32:25;1.47;;;0.90;;
4373;SDS011;2201;51.100;6.814;2023-04-26T12:34:53;1.50;;;1.03;;
4373;SDS011;2201;51.100;6.814;2023-04-26T12:37:20;1.60;;;1.20;;
4373;SDS011;2201;51.100;6.814;2023-04-26T12:39:48;1.50;;;1.00;;
4373;SDS011;2201;51.100;6.814;2023-04-26T12:42:15;1.43;;;0.90;;
4373;SDS011;2201;51.100;6.814;2023-04-26T12:44:42;1.43;;;1.00;;
4373;SDS011;2201;51.100;6.814;2023-04-26T12:47:08;1.40;;;1.00;;
4373;SDS011;2201;51.100;6.814;2023-04-26T12:49:35;1.43;;;0.90;;
4373;SDS011;2201;51.100;6.814;2023-04-26T12:52:02;1.43;;;0.90;;
4373;SDS011;2201;51.100;6.814;2023-04-26T12:54:29;1.43;;;0.93;;
4373;SDS011;2201;51.100;6.814;2023-04-26T12:56:57;1.50;;;0.90;;
4373;SDS011;2201;51.100;6.814;2023-04-26T12:59:24;1.43;;;0.90;;
4373;SDS011;2201;51.100;6.814;2023-04-26T13:01:51;1.47;;;0.90;;
4373;SDS011;2201;51.100;6.814;2023-04-26T13:04:17;1.47;;;0.90;;
4373;SDS011;2201;51.100;6.814;2023-04-26T13:06:44;1.47;;;0.90;;
4373;SDS011;2201;51.100;6.814;2023-04-26T13:09:11;1.50;;;0.90;;
4373;SDS011;2201;51.100;6.814;2023-04-26T13:11:38;1.50;;;0.90;;
4373;SDS011;2201;51.100;6.814;2023-04-26T13:14:07;1.47;;;0.90;;
4373;SDS011;2201;51.100;6.814;2023-04-26T13:16:33;1.50;;;0.90;;
4373;SDS011;2201;51.100;6.814;2023-04-26T13:19:00;1.47;;;0.90;;
4373;SDS011;2201;51.100;6.814;2023-04-26T13:21:27;1.50;;;0.90;;
4373;SDS011;2201;51.100;6.814;2023-04-26T13:23:54;1.47;;;0.90;;
4373;SDS011;2201;51.100;6.814;2023-04-26T13:26:21;1.50;;;0.90;;
4373;SDS011;2201;51.100;6.814;2023-04-26T13:28:48;1.50;;;0.90;;
4373;SDS011;2201;51.100;6.814;2023-04-26T13:31:16;1.50;;;0.90;;
4373;SDS011;2201;51.100;6.814;2023-04-26T13:33:44;1.50;;;0.90;;
4373;SDS011;2201;51.100;6.814;2023-04-26T13:36:13;1.43;;;0.90;;
4373;SDS011;2201;51.100;6.814;2023-04-26T13:38:40;1.43;;;0.90;;
4373;SDS011;2201;51.100;6.814;2023-04-26T13:41:08;1.50;;;0.90;;
4373;SDS011;2201;51.100;6.814;2023-04-26T13:43:35;1.47;;;0.90;;
4373;SDS011;2201;51.100;6.814;2023-04-26T13:46:02;1.43;;;0.90;;
4373;SDS011;2201;51.100;6.814;2023-04-26T13:48:30;1.50;;;0.90;;
4373;SDS011;2201;51.100;6.814;2023-04-26T13:50:57;1.50;;;0.90;;
4373;SDS011;2201;51.100;6.814;2023-04-26T13:53:24;1.47;;;0.90;;
4373;SDS011;2201;51.100;6.814;2023-04-26T13:55:51;1.50;;;0.90;;
4373;SDS011;2201;51.100;6.814;2023-04-26T13:58:18;1.50;;;0.90;;
4373;SDS011;2201;51.100;6.814;2023-04-26T14:00:44;1.40;;;0.90;;
4373;SDS011;2201;51.100;6.814;2023-04-26T14:03:11;1.47;;;0.90;;
4373;SDS011;2201;51.100;6.814;2023-04-26T14:05:39;1.47;;;0.90;;
4373;SDS011;2201;51.100;6.814;2023-04-26T14:08:06;1.43;;;0.90;;
4373;SDS011;2201;51.100;6.814;2023-04-26T14:10:33;1.50;;;0.90;;
4373;SDS011;2201;51.100;6.814;2023-04-26T14:13:00;1.40;;;0.90;;
4373;SDS011;2201;51.100;6.814;2023-04-26T14:15:27;1.43;;;0.90;;
4373;SDS011;2201;51.100;6.814;2023-04-26T14:17:54;1.43;;;0.90;;
4373;SDS011;2201;51.100;6.814;2023-04-26T14:20:20;1.40;;;0.90;;
4373;SDS011;2201;51.100;6.814;2023-04-26T14:22:49;1.43;;;0.90;;
4373;SDS011;2201;51.100;6.814;2023-04-26T14:25:15;1.50;;;1.00;;
4373;SDS011;2201;51.100;6.814;2023-04-26T14:27:43;1.50;;;0.90;;
4373;SDS011;2201;51.100;6.814;2023-04-26T14:30:09;1.43;;;0.90;;
4373;SDS011;2201;51.100;6.814;2023-04-26T14:32:37;1.50;;;0.90;;
4373;SDS011;2201;51.100;6.814;2023-04-26T14:35:04;1.43;;;0.90;;
4373;SDS011;2201;51.100;6.814;2023-04-26T14:37:31;1.47;;;0.90;;
4373;SDS011;2201;51.100;6.814;2023-04-26T14:39:59;1.47;;;0.90;;
4373;SDS011;2201;51.100;6.814;2023-04-26T14:42:26;1.43;;;0.90;;
4373;SDS011;2201;51.100;6.814;2023-04-26T14:44:53;1.43;;;0.90;;
4373;SDS011;2201;51.100;6.814;2023-04-26T14:47:20;1.50;;;0.90;;
4373;SDS011;2201;51.100;6.814;2023-04-26T14:49:47;1.50;;;1.00;;
4373;SDS011;2201;51.100;6.814;2023-04-26T14:52:13;1.43;;;0.90;;
4373;SDS011;2201;51.100;6.814;2023-04-26T14:54:40;1.40;;;0.90;;
4373;SDS011;2201;51.100;6.814;2023-04-26T14:57:08;1.43;;;0.90;;
4373;SDS011;2201;51.100;6.814;2023-04-26T14:59:36;1.47;;;0.90;;
4373;SDS011;2201;51.100;6.814;2023-04-26T15:02:03;1.50;;;0.90;;
4373;SDS011;2201;51.100;6.814;2023-04-26T15:04:30;1.50;;;0.90;;
4373;SDS011;2201;51.100;6.814;2023-04-26T15:06:57;1.47;;;0.90;;
4373;SDS011;2201;51.100;6.814;2023-04-26T15:09:23;1.43;;;0.90;;
4373;SDS011;2201;51.100;6.814;2023-04-26T15:11:50;1.43;;;1.00;;
4373;SDS011;2201;51.100;6.814;2023-04-26T15:14:18;1.43;;;0.97;;
4373;SDS011;2201;51.100;6.814;2023-04-26T15:16:45;1.50;;;0.93;;
4373;SDS011;2201;51.100;6.814;2023-04-26T15:19:12;1.43;;;0.90;;
4373;SDS011;2201;51.100;6.814;2023-04-26T15:21:39;1.47;;;0.90;;
4373;SDS011;2201;51.100;6.814;2023-04-26T15:24:06;1.40;;;0.90;;
4373;SDS011;2201;51.100;6.814;2023-04-26T15:26:33;1.43;;;0.90;;